Time;durP1;ratioP1;P1;durP2;ratioP2;P2;SDS_P1;SDS_P2;PMS_P1;PMS_P2;Temp;Humidity;BMP_temperature;BMP_pressure;BME280_temperature;BME280_humidity;BME280_pressure;Samples;Min_cycle;Max_cycle;Signal;HPM_P1;HPM_P2
2022/03/03 00:01:44;;;;;;;26.70;12.40;;;-2.70;99.90;;;;;;5076437;28;20021;-69
2022/03/03 00:04:12;;;;;;;24.00;10.60;;;-2.70;99.90;;;;;;5055243;28;20372;-69
2022/03/03 00:06:39;;;;;;;25.08;10.40;;;-2.70;99.90;;;;;;5055900;28;20108;-69
2022/03/03 00:09:07;;;;;;;27.73;11.35;;;-2.70;99.90;;;;;;5056277;28;20025;-69
2022/03/03 00:11:34;;;;;;;27.88;11.43;;;-2.70;99.90;;;;;;5057703;28;20056;-69
2022/03/03 00:14:01;;;;;;;24.52;10.55;;;-2.70;99.90;;;;;;5056160;28;20025;-69
2022/03/03 00:16:28;;;;;;;23.17;10.02;;;-2.70;99.90;;;;;;5056103;28;20021;-69
2022/03/03 00:18:57;;;;;;;26.40;10.18;;;-2.80;99.90;;;;;;5055935;28;20025;-69
2022/03/03 00:21:24;;;;;;;28.05;11.45;;;-2.70;99.90;;;;;;5056097;28;20083;-69
2022/03/03 00:23:51;;;;;;;31.90;11.65;;;-2.70;99.90;;;;;;5056732;28;20021;-69
2022/03/03 00:26:19;;;;;;;26.10;12.45;;;-2.70;99.90;;;;;;5057728;28;20047;-69
2022/03/03 00:28:48;;;;;;;27.48;11.73;;;-2.70;99.90;;;;;;5057109;28;20025;-69
2022/03/03 00:31:16;;;;;;;22.70;10.85;;;-2.70;99.90;;;;;;5056085;28;20029;-69
2022/03/03 00:33:43;;;;;;;24.83;10.27;;;-2.70;99.90;;;;;;5056109;28;20017;-69
2022/03/03 00:36:11;;;;;;;28.48;11.90;;;-2.70;99.90;;;;;;5058721;28;20458;-70
2022/03/03 00:38:38;;;;;;;24.85;10.55;;;-2.70;99.90;;;;;;5058881;28;20029;-70
2022/03/03 00:41:06;;;;;;;26.20;10.38;;;-2.70;99.90;;;;;;5060778;28;20147;-69
2022/03/03 00:43:33;;;;;;;25.77;11.35;;;-2.70;99.90;;;;;;5060214;28;20029;-70
2022/03/03 00:46:00;;;;;;;23.58;10.68;;;-2.70;99.90;;;;;;5058874;28;20086;-70
2022/03/03 00:48:28;;;;;;;27.05;11.43;;;-2.80;99.90;;;;;;5058827;28;20134;-70
2022/03/03 00:50:55;;;;;;;25.40;10.48;;;-2.80;99.90;;;;;;5060027;28;20335;-70
2022/03/03 00:53:23;;;;;;;28.30;11.40;;;-2.80;99.90;;;;;;5060688;28;20029;-69
2022/03/03 00:55:50;;;;;;;22.08;10.85;;;-2.80;99.90;;;;;;5061444;28;20032;-69
2022/03/03 00:58:18;;;;;;;25.40;10.77;;;-2.80;99.90;;;;;;5060739;28;20033;-69
2022/03/03 01:00:45;;;;;;;24.98;11.02;;;-2.80;99.90;;;;;;5060847;28;20017;-70
2022/03/03 01:03:12;;;;;;;28.00;11.82;;;-2.80;99.90;;;;;;5063582;28;20040;-69
2022/03/03 01:05:39;;;;;;;24.40;10.00;;;-2.80;99.90;;;;;;5081108;28;20028;-69
2022/03/03 01:08:10;;;;;;;25.60;9.80;;;-2.80;99.90;;;;;;5062824;28;20104;-69
2022/03/03 01:10:39;;;;;;;26.38;10.77;;;-2.80;99.90;;;;;;5080591;28;20078;-69
2022/03/03 01:13:06;;;;;;;27.08;12.23;;;-2.80;99.90;;;;;;5080036;28;20029;-69
2022/03/03 01:15:33;;;;;;;24.48;11.00;;;-2.80;99.90;;;;;;5079334;28;20024;-69
2022/03/03 01:18:01;;;;;;;27.05;11.77;;;-2.80;99.90;;;;;;5061503;28;20082;-69
2022/03/03 01:20:29;;;;;;;30.10;12.40;;;-2.80;99.90;;;;;;5079785;28;20417;-69
2022/03/03 01:22:56;;;;;;;26.05;11.07;;;-2.80;99.90;;;;;;5079267;28;20096;-69
2022/03/03 01:25:23;;;;;;;23.40;11.23;;;-2.80;99.90;;;;;;5062286;28;20027;-69
2022/03/03 01:27:51;;;;;;;31.60;12.48;;;-2.80;99.90;;;;;;5079173;28;20036;-69
2022/03/03 01:30:18;;;;;;;31.50;12.35;;;-2.80;99.90;;;;;;5061391;28;20058;-70
2022/03/03 01:32:45;;;;;;;21.08;10.32;;;-2.90;99.90;;;;;;5061341;28;20028;-70
2022/03/03 01:35:13;;;;;;;22.55;9.52;;;-2.90;99.90;;;;;;5079317;28;20033;-69
2022/03/03 01:37:40;;;;;;;26.63;11.70;;;-2.90;99.90;;;;;;5080385;28;20031;-69
2022/03/03 01:40:09;;;;;;;27.38;10.43;;;-3.00;99.90;;;;;;5062249;28;20021;-70
2022/03/03 01:42:36;;;;;;;23.15;10.73;;;-3.10;99.90;;;;;;5079889;28;20286;-69
2022/03/03 01:45:04;;;;;;;21.98;9.55;;;-3.10;99.90;;;;;;5061688;28;20028;-69
2022/03/03 01:47:32;;;;;;;27.90;11.65;;;-3.00;99.90;;;;;;5079896;28;20029;-69
2022/03/03 01:49:59;;;;;;;27.30;12.02;;;-3.00;99.90;;;;;;5061954;28;20115;-69
2022/03/03 01:52:27;;;;;;;31.33;12.23;;;-3.10;99.90;;;;;;5062109;28;20020;-69
2022/03/03 01:54:54;;;;;;;31.15;12.50;;;-3.10;99.90;;;;;;5061427;28;20024;-69
2022/03/03 01:57:22;;;;;;;26.35;11.35;;;-3.10;99.90;;;;;;5078595;28;20029;-70
2022/03/03 01:59:49;;;;;;;27.05;10.43;;;-3.10;99.90;;;;;;5061333;28;20020;-69
2022/03/03 02:02:17;;;;;;;27.20;10.85;;;-3.00;99.90;;;;;;5078484;28;20035;-69
2022/03/03 02:04:44;;;;;;;30.08;11.38;;;-3.10;99.90;;;;;;5078491;28;20128;-69
2022/03/03 02:07:11;;;;;;;26.00;10.43;;;-3.10;99.90;;;;;;5060672;28;20024;-69
2022/03/03 02:09:44;;;;;;;23.65;10.68;;;-3.10;99.90;;;;;;5044222;28;20028;-69
2022/03/03 02:12:12;;;;;;;23.08;10.40;;;-3.10;99.90;;;;;;5078285;28;20447;-69
2022/03/03 02:14:44;;;;;;;29.48;10.30;;;-3.10;99.90;;;;;;5078312;28;20040;-70
2022/03/03 02:17:12;;;;;;;32.60;10.98;;;-3.10;99.90;;;;;;5078230;28;20024;-70
2022/03/03 02:19:39;;;;;;;32.30;11.73;;;-3.10;99.90;;;;;;5061835;28;20081;-69
2022/03/03 02:22:07;;;;;;;28.85;11.35;;;-3.10;99.90;;;;;;5044758;28;20020;-69
2022/03/03 02:24:36;;;;;;;27.10;11.13;;;-3.10;99.90;;;;;;5078928;28;20040;-69
2022/03/03 02:27:05;;;;;;;23.83;10.27;;;-3.00;99.90;;;;;;5078858;28;20040;-69
2022/03/03 02:29:35;;;;;;;29.80;11.63;;;-3.00;99.90;;;;;;5061388;28;20035;-69
2022/03/03 02:32:05;;;;;;;27.02;10.77;;;-3.00;99.90;;;;;;5078887;28;20024;-69
2022/03/03 02:34:32;;;;;;;28.20;11.40;;;-3.00;99.90;;;;;;5078845;28;20017;-69
2022/03/03 02:36:59;;;;;;;27.45;10.43;;;-2.90;99.90;;;;;;5060921;28;20029;-69
2022/03/03 02:39:27;;;;;;;27.27;10.98;;;-2.90;99.90;;;;;;5060144;28;20017;-69
2022/03/03 02:41:54;;;;;;;25.40;10.40;;;-2.90;99.90;;;;;;5078094;28;20373;-69
2022/03/03 02:44:22;;;;;;;26.85;10.73;;;-2.90;99.90;;;;;;5078245;28;20024;-69
2022/03/03 02:46:49;;;;;;;25.58;10.75;;;-2.90;99.90;;;;;;5077689;28;20017;-69
2022/03/03 02:49:17;;;;;;;23.70;10.00;;;-2.90;99.90;;;;;;5078155;28;20052;-69
2022/03/03 02:51:44;;;;;;;26.90;11.02;;;-2.90;99.90;;;;;;5077683;28;20026;-69
2022/03/03 02:54:11;;;;;;;25.60;10.35;;;-2.90;99.90;;;;;;5078062;28;20016;-69
2022/03/03 02:59:25;;;;;;;76.47;23.60;;;-3.00;99.90;;;;;;5077954;28;20431;-69
2022/03/03 03:01:53;;;;;;;62.30;16.60;;;-3.00;99.90;;;;;;5077912;28;20029;-69
2022/03/03 03:04:21;;;;;;;31.67;12.25;;;-3.00;99.90;;;;;;5078084;28;20060;-69
2022/03/03 03:06:48;;;;;;;35.30;13.07;;;-3.00;99.90;;;;;;5078216;28;20023;-69
2022/03/03 03:09:16;;;;;;;29.85;11.73;;;-3.10;99.90;;;;;;5061162;28;20096;-69
2022/03/03 03:11:43;;;;;;;25.30;10.50;;;-3.10;99.90;;;;;;5078370;28;20017;-69
2022/03/03 03:14:11;;;;;;;20.27;9.45;;;-3.10;99.90;;;;;;5043606;28;20024;-69
2022/03/03 03:16:38;;;;;;;29.58;11.32;;;-3.20;99.90;;;;;;5077921;28;20016;-69
2022/03/03 03:19:05;;;;;;;30.95;12.10;;;-3.20;99.90;;;;;;5060714;28;20035;-70
2022/03/03 03:21:32;;;;;;;41.67;13.32;;;-3.20;99.90;;;;;;5060114;28;20025;-69
2022/03/03 03:24:00;;;;;;;29.30;11.50;;;-3.30;99.90;;;;;;5076938;28;20096;-69
2022/03/03 03:26:28;;;;;;;28.52;11.88;;;-3.30;99.90;;;;;;5059175;28;20027;-69
2022/03/03 03:28:55;;;;;;;27.25;10.60;;;-3.30;99.90;;;;;;5077453;28;20035;-69
2022/03/03 03:31:23;;;;;;;28.80;11.48;;;-3.40;99.90;;;;;;5059163;28;20356;-70
2022/03/03 03:33:50;;;;;;;30.92;11.65;;;-3.40;99.90;;;;;;5077367;28;20036;-69
2022/03/03 03:36:17;;;;;;;24.17;10.55;;;-3.40;99.90;;;;;;5076728;28;20032;-70
2022/03/03 03:38:46;;;;;;;27.83;11.07;;;-3.40;99.90;;;;;;5076704;28;20020;-70
2022/03/03 03:41:13;;;;;;;27.42;11.38;;;-3.50;99.90;;;;;;5076631;28;20020;-69
2022/03/03 03:43:40;;;;;;;27.15;10.77;;;-3.50;99.90;;;;;;5059953;28;20028;-69
2022/03/03 03:46:08;;;;;;;28.90;11.07;;;-3.50;99.90;;;;;;5077809;28;20028;-69
2022/03/03 03:48:35;;;;;;;30.20;11.07;;;-3.50;99.90;;;;;;5077477;28;20021;-69
2022/03/03 03:51:03;;;;;;;25.20;11.50;;;-3.50;99.90;;;;;;5077552;28;20412;-69
2022/03/03 03:53:30;;;;;;;27.63;12.00;;;-3.60;99.90;;;;;;5078091;28;20028;-69
2022/03/03 03:55:59;;;;;;;25.10;11.70;;;-3.60;99.90;;;;;;5077516;28;20027;-69
2022/03/03 03:58:26;;;;;;;23.05;9.85;;;-3.60;99.90;;;;;;5077883;28;20090;-69
2022/03/03 04:00:53;;;;;;;35.60;10.35;;;-3.60;99.90;;;;;;5059688;28;20078;-69
2022/03/03 04:03:21;;;;;;;24.17;11.00;;;-3.60;99.90;;;;;;5076410;28;20047;-69
2022/03/03 04:05:48;;;;;;;27.05;11.07;;;-3.70;99.90;;;;;;5077001;28;20070;-69
2022/03/03 04:08:16;;;;;;;30.50;11.68;;;-3.70;99.90;;;;;;5076545;28;20021;-69
2022/03/03 04:10:43;;;;;;;27.83;11.73;;;-3.70;99.90;;;;;;5076420;28;20101;-69
2022/03/03 04:13:10;;;;;;;32.88;11.95;;;-3.70;99.90;;;;;;5076409;28;20032;-69
2022/03/03 04:15:38;;;;;;;28.30;11.32;;;-3.70;99.90;;;;;;5076348;28;20111;-69
2022/03/03 04:18:05;;;;;;;31.02;11.38;;;-3.70;99.90;;;;;;5076324;28;20074;-69
2022/03/03 04:20:33;;;;;;;23.40;10.13;;;-3.70;99.90;;;;;;5076212;28;20032;-69
2022/03/03 04:23:00;;;;;;;22.27;10.40;;;-3.70;99.90;;;;;;5059228;28;20025;-69
2022/03/03 04:25:27;;;;;;;25.27;9.68;;;-3.80;99.90;;;;;;5059041;28;20334;-69
2022/03/03 04:27:54;;;;;;;26.05;10.55;;;-3.80;99.90;;;;;;5059447;28;20035;-69
2022/03/03 04:30:21;;;;;;;23.70;10.15;;;-3.80;99.90;;;;;;5059214;28;20029;-69
2022/03/03 04:32:49;;;;;;;26.33;10.85;;;-3.90;99.90;;;;;;5077657;28;20059;-69
2022/03/03 04:35:17;;;;;;;27.00;10.15;;;-3.90;99.90;;;;;;5059278;28;20425;-69
2022/03/03 04:37:44;;;;;;;26.23;10.05;;;-3.90;99.90;;;;;;5077342;28;20112;-69
2022/03/03 04:40:11;;;;;;;25.02;11.50;;;-3.90;99.90;;;;;;5059160;28;20467;-69
2022/03/03 04:42:39;;;;;;;26.55;11.38;;;-3.90;99.90;;;;;;5077305;28;20039;-69
2022/03/03 04:45:08;;;;;;;25.80;11.05;;;-4.00;99.90;;;;;;5076567;28;20458;-69
2022/03/03 04:47:35;;;;;;;30.38;11.13;;;-4.00;99.90;;;;;;5076158;28;20114;-69
2022/03/03 04:50:04;;;;;;;29.23;10.45;;;-4.00;99.90;;;;;;5058402;28;20424;-69
2022/03/03 04:52:31;;;;;;;25.88;10.98;;;-4.00;99.90;;;;;;5058251;28;20078;-69
2022/03/03 04:54:59;;;;;;;23.73;10.55;;;-4.10;99.90;;;;;;5076554;28;20097;-69
2022/03/03 04:57:26;;;;;;;27.75;10.07;;;-4.10;99.90;;;;;;5076041;28;20021;-69
2022/03/03 04:59:53;;;;;;;23.67;10.38;;;-4.00;99.90;;;;;;5075921;28;20416;-69
2022/03/03 05:02:21;;;;;;;23.70;10.32;;;-4.10;99.90;;;;;;5058185;28;20051;-69
2022/03/03 05:04:48;;;;;;;27.77;10.68;;;-4.10;99.90;;;;;;5075678;28;20048;-69
2022/03/03 05:07:16;;;;;;;27.05;11.32;;;-4.10;99.90;;;;;;5076168;28;20046;-69
2022/03/03 05:09:43;;;;;;;26.23;11.02;;;-4.20;99.90;;;;;;5059659;28;20027;-69
2022/03/03 05:12:10;;;;;;;26.85;10.70;;;-4.10;99.90;;;;;;5076720;28;20032;-69
2022/03/03 05:14:38;;;;;;;28.20;11.23;;;-4.10;99.90;;;;;;5077285;28;20385;-69
2022/03/03 05:17:05;;;;;;;21.67;10.05;;;-4.20;99.90;;;;;;5077057;28;20047;-69
2022/03/03 05:19:33;;;;;;;25.88;10.30;;;-4.20;99.90;;;;;;5076608;28;20029;-69
2022/03/03 05:22:00;;;;;;;18.42;9.35;;;-4.20;99.90;;;;;;5079988;28;20028;-69
2022/03/03 05:24:28;;;;;;;26.38;11.27;;;-4.20;99.90;;;;;;5080212;28;20016;-69
2022/03/03 05:26:55;;;;;;;27.08;10.85;;;-4.30;99.90;;;;;;5080602;28;20077;-69
2022/03/03 05:29:22;;;;;;;29.52;12.77;;;-4.30;99.90;;;;;;5079465;28;20362;-69
2022/03/03 05:31:50;;;;;;;25.17;10.77;;;-4.30;99.90;;;;;;5044802;28;20017;-69
2022/03/03 05:34:17;;;;;;;26.55;11.18;;;-4.30;99.90;;;;;;5079640;28;20431;-69
2022/03/03 05:36:44;;;;;;;27.73;11.60;;;-4.40;99.90;;;;;;5079582;28;20380;-69
2022/03/03 05:39:13;;;;;;;26.15;11.02;;;-4.30;99.90;;;;;;5061319;28;20028;-69
2022/03/03 05:41:41;;;;;;;29.20;11.27;;;-4.40;99.90;;;;;;5079019;28;20031;-69
2022/03/03 05:44:15;;;;;;;25.52;10.60;;;-4.40;99.90;;;;;;5079190;28;20486;-69
2022/03/03 05:46:42;;;;;;;28.95;11.15;;;-4.40;99.90;;;;;;5079473;28;20048;-69
2022/03/03 05:49:12;;;;;;;25.20;10.23;;;-4.40;99.90;;;;;;5078909;28;20020;-69
2022/03/03 05:51:40;;;;;;;27.30;10.65;;;-4.40;99.90;;;;;;5079885;28;20035;-69
2022/03/03 05:54:07;;;;;;;27.77;11.70;;;-4.40;99.90;;;;;;5061890;28;20024;-69
2022/03/03 05:56:46;;;;;;;25.27;11.48;;;-4.40;99.90;;;;;;5079666;28;20031;-69
2022/03/03 05:59:16;;;;;;;29.42;10.25;;;-4.40;99.90;;;;;;5079274;28;20375;-69
2022/03/03 06:01:44;;;;;;;25.50;10.50;;;-4.40;99.90;;;;;;5079676;28;20103;-69
2022/03/03 06:04:17;;;;;;;23.73;11.30;;;-4.50;99.90;;;;;;5079281;28;20076;-69
2022/03/03 06:06:54;;;;;;;28.38;11.63;;;-4.40;99.90;;;;;;5079692;28;20298;-69
2022/03/03 06:09:29;;;;;;;33.45;11.98;;;-4.40;99.90;;;;;;5078971;28;20025;-69
2022/03/03 06:12:10;;;;;;;29.77;11.68;;;-4.40;99.90;;;;;;5078511;28;20020;-69
2022/03/03 06:14:40;;;;;;;29.48;11.75;;;-4.40;99.90;;;;;;5078344;28;20066;-69
2022/03/03 06:17:09;;;;;;;26.60;11.60;;;-4.40;99.90;;;;;;5078144;28;20021;-69
2022/03/03 06:19:42;;;;;;;25.92;11.45;;;-4.40;99.90;;;;;;5078177;28;20090;-69
2022/03/03 06:22:11;;;;;;;24.33;10.38;;;-4.40;99.90;;;;;;5078883;28;20091;-69
2022/03/03 06:24:39;;;;;;;29.27;11.10;;;-4.40;99.90;;;;;;5078110;28;20027;-69
2022/03/03 06:27:07;;;;;;;31.35;11.20;;;-4.40;99.90;;;;;;5078000;28;20316;-69
2022/03/03 06:29:35;;;;;;;26.85;11.02;;;-4.30;99.90;;;;;;5060239;28;20431;-69
2022/03/03 06:32:04;;;;;;;21.92;10.20;;;-4.30;99.90;;;;;;5077165;28;20024;-69
2022/03/03 06:34:31;;;;;;;25.70;11.15;;;-4.30;99.90;;;;;;5078856;28;20021;-69
2022/03/03 06:36:59;;;;;;;24.00;10.43;;;-4.30;99.90;;;;;;5078752;28;20024;-69
2022/03/03 06:39:27;;;;;;;24.85;9.77;;;-4.30;99.90;;;;;;5061041;28;20016;-69
2022/03/03 06:41:54;;;;;;;23.50;10.73;;;-4.30;99.90;;;;;;5079245;28;20092;-69
2022/03/03 06:44:21;;;;;;;25.27;10.82;;;-4.30;99.90;;;;;;5061097;28;20058;-69
2022/03/03 06:46:48;;;;;;;26.73;11.98;;;-4.20;99.90;;;;;;5061561;28;20065;-69
2022/03/03 06:49:16;;;;;;;27.85;11.27;;;-4.20;99.90;;;;;;5078558;28;20016;-69
2022/03/03 06:51:49;;;;;;;26.83;11.38;;;-4.20;99.90;;;;;;5078523;28;20020;-69
2022/03/03 06:54:19;;;;;;;23.70;9.88;;;-4.10;99.90;;;;;;5059770;28;20025;-69
2022/03/03 06:56:48;;;;;;;30.38;11.00;;;-4.10;99.90;;;;;;5059963;28;20162;-69
2022/03/03 06:59:18;;;;;;;26.05;10.00;;;-4.10;99.90;;;;;;5077426;28;20099;-69
2022/03/03 07:01:49;;;;;;;29.58;11.65;;;-4.00;99.90;;;;;;5077406;28;20024;-69
2022/03/03 07:04:19;;;;;;;26.33;11.43;;;-4.00;99.90;;;;;;5077291;28;20044;-68
2022/03/03 07:06:48;;;;;;;29.52;12.52;;;-3.90;99.90;;;;;;5077824;28;20087;-68
2022/03/03 07:09:16;;;;;;;33.10;12.95;;;-3.90;99.90;;;;;;5077179;28;20024;-68
2022/03/03 07:11:45;;;;;;;30.02;11.70;;;-3.90;99.90;;;;;;5077146;28;20027;-68
2022/03/03 07:14:12;;;;;;;27.88;11.98;;;-3.80;99.90;;;;;;5077836;28;20287;-68
2022/03/03 07:16:46;;;;;;;31.30;13.27;;;-3.80;99.90;;;;;;5078764;28;20380;-68
2022/03/03 07:19:38;;;;;;;33.65;14.90;;;-3.80;99.90;;;;;;5060196;28;20074;-68
2022/03/03 07:22:19;;;;;;;48.17;20.77;;;-3.70;99.90;;;;;;5060160;28;20448;-68
2022/03/03 07:24:57;;;;;;;51.75;22.50;;;-3.60;99.90;;;;;;5077932;28;20031;-68
2022/03/03 07:27:25;;;;;;;40.95;17.42;;;-3.50;99.90;;;;;;5077884;28;20033;-69
2022/03/03 07:29:58;;;;;;;34.33;15.50;;;-3.40;99.90;;;;;;5077832;28;20016;-71
2022/03/03 07:32:51;;;;;;;33.72;15.10;;;-3.40;99.90;;;;;;5077828;28;20101;-68
2022/03/03 07:35:20;;;;;;;34.08;15.30;;;-3.30;99.90;;;;;;5077138;28;20100;-69
2022/03/03 07:37:58;;;;;;;38.40;16.98;;;-3.20;99.90;;;;;;5076782;28;20024;-69
2022/03/03 07:40:31;;;;;;;35.30;14.43;;;-3.20;99.90;;;;;;5076746;28;20085;-69
2022/03/03 07:42:59;;;;;;;29.98;13.90;;;-3.10;99.90;;;;;;5076637;28;20017;-74
2022/03/03 07:45:29;;;;;;;35.17;13.85;;;-3.00;99.90;;;;;;5075591;28;20021;-74
2022/03/03 07:47:57;;;;;;;31.85;14.80;;;-2.90;99.90;;;;;;5076829;28;20029;-75
2022/03/03 07:50:27;;;;;;;41.30;17.67;;;-2.80;99.90;;;;;;5076588;28;20024;-76
2022/03/03 07:52:55;;;;;;;40.35;18.38;;;-2.70;99.90;;;;;;5076639;28;20078;-73
2022/03/03 07:55:24;;;;;;;38.60;17.05;;;-2.70;99.90;;;;;;5076548;28;20025;-73
2022/03/03 07:58:02;;;;;;;41.63;17.25;;;-2.60;99.90;;;;;;5076923;28;20028;-73
2022/03/03 08:00:34;;;;;;;37.88;15.95;;;-2.50;99.90;;;;;;5077425;28;20313;-74
2022/03/03 08:03:08;;;;;;;32.10;14.57;;;-2.40;99.90;;;;;;5077691;28;20401;-74
2022/03/03 08:05:37;;;;;;;30.40;15.43;;;-2.30;99.90;;;;;;5077439;28;20372;-74
2022/03/03 08:08:05;;;;;;;54.45;20.27;;;-2.20;99.90;;;;;;5077677;28;20546;-74
2022/03/03 08:10:34;;;;;;;46.35;19.60;;;-2.20;99.90;;;;;;5077367;28;20074;-74
2022/03/03 08:13:02;;;;;;;49.05;19.55;;;-2.10;99.90;;;;;;5077494;28;20028;-74
2022/03/03 08:15:30;;;;;;;50.15;19.73;;;-2.00;99.90;;;;;;5059589;28;20032;-74
2022/03/03 08:17:57;;;;;;;34.50;16.55;;;-1.90;99.90;;;;;;5058705;28;20336;-74
2022/03/03 08:20:25;;;;;;;34.53;16.02;;;-1.80;99.90;;;;;;5076838;28;20017;-74
2022/03/03 08:22:53;;;;;;;41.65;17.10;;;-1.80;99.90;;;;;;5076347;28;20048;-73
2022/03/03 08:25:22;;;;;;;43.78;15.60;;;-1.70;99.90;;;;;;5076284;28;20051;-73
2022/03/03 08:27:50;;;;;;;31.48;15.60;;;-1.60;99.90;;;;;;5076761;28;20331;-73
2022/03/03 08:30:18;;;;;;;35.95;14.93;;;-1.50;99.90;;;;;;5076342;28;20025;-73
2022/03/03 08:33:09;;;;;;;30.13;14.07;;;-1.50;99.90;;;;;;5076803;28;20161;-73
2022/03/03 08:35:40;;;;;;;28.83;14.00;;;-1.40;99.90;;;;;;5076264;28;20035;-73
2022/03/03 08:38:34;;;;;;;29.05;13.50;;;-1.30;99.90;;;;;;5076306;28;20107;-73
2022/03/03 08:41:05;;;;;;;30.85;13.93;;;-1.20;99.90;;;;;;5076943;28;20411;-73
2022/03/03 08:43:33;;;;;;;32.28;13.77;;;-1.10;99.90;;;;;;5077329;28;20028;-72
2022/03/03 08:46:04;;;;;;;30.88;13.07;;;-1.00;99.90;;;;;;5059300;28;20333;-73
2022/03/03 08:48:33;;;;;;;28.65;13.68;;;-0.90;99.90;;;;;;5077424;28;20066;-74
2022/03/03 08:51:03;;;;;;;30.52;13.50;;;-0.70;99.90;;;;;;5076964;28;20412;-75
2022/03/03 08:53:30;;;;;;;32.67;14.43;;;-0.60;99.90;;;;;;5077234;28;20111;-73
2022/03/03 08:55:58;;;;;;;27.33;13.30;;;-0.50;99.90;;;;;;5078513;28;20060;-69
2022/03/03 08:58:27;;;;;;;27.58;12.20;;;-0.40;99.90;;;;;;5081551;28;20392;-68
2022/03/03 09:00:54;;;;;;;28.75;13.15;;;-0.30;99.90;;;;;;5080099;28;20024;-68
2022/03/03 09:03:22;;;;;;;29.00;13.50;;;-0.20;99.90;;;;;;5061790;28;20033;-69
2022/03/03 09:05:56;;;;;;;28.85;13.30;;;0.00;99.90;;;;;;5079586;28;20055;-69
2022/03/03 09:08:29;;;;;;;29.80;14.07;;;0.20;99.90;;;;;;5080043;28;20048;-69
2022/03/03 09:10:56;;;;;;;29.98;13.40;;;0.40;99.90;;;;;;5080053;28;20021;-69
2022/03/03 09:13:24;;;;;;;27.80;14.32;;;0.50;99.90;;;;;;5079523;28;20028;-69
2022/03/03 09:15:52;;;;;;;31.27;14.93;;;0.60;99.90;;;;;;5079440;28;20429;-69
2022/03/03 09:18:19;;;;;;;25.40;12.57;;;0.70;99.90;;;;;;5079985;28;20025;-68
2022/03/03 09:20:47;;;;;;;23.92;11.40;;;0.70;99.90;;;;;;5079504;28;20082;-69
2022/03/03 09:23:16;;;;;;;29.45;12.05;;;0.80;99.90;;;;;;5062143;28;20073;-69
2022/03/03 09:25:43;;;;;;;27.70;13.52;;;0.80;99.90;;;;;;5062374;28;20024;-68
2022/03/03 09:28:12;;;;;;;24.52;12.38;;;0.90;99.90;;;;;;5080418;28;20033;-70
2022/03/03 09:30:39;;;;;;;20.95;11.63;;;1.10;99.90;;;;;;5080019;28;20033;-68
2022/03/03 09:33:08;;;;;;;23.25;11.40;;;1.20;99.90;;;;;;5080090;28;20031;-68
2022/03/03 09:35:35;;;;;;;22.25;11.48;;;1.30;99.90;;;;;;5080020;28;20036;-68
2022/03/03 09:38:03;;;;;;;24.52;12.00;;;1.40;99.90;;;;;;5062963;28;20025;-68
2022/03/03 09:40:31;;;;;;;23.88;12.40;;;1.50;99.90;;;;;;5079878;28;20020;-68
2022/03/03 09:43:00;;;;;;;26.00;12.02;;;1.60;99.90;;;;;;5079722;28;20020;-68
2022/03/03 09:45:28;;;;;;;22.45;11.45;;;1.80;99.90;;;;;;5078851;28;20080;-68
2022/03/03 09:47:56;;;;;;;22.88;12.13;;;1.90;99.90;;;;;;5061261;28;20363;-68
2022/03/03 09:50:26;;;;;;;23.70;11.52;;;2.00;99.90;;;;;;5078842;28;20021;-68
2022/03/03 09:52:55;;;;;;;25.70;12.40;;;2.10;99.90;;;;;;5061007;28;20040;-69
2022/03/03 09:55:22;;;;;;;28.00;12.50;;;2.20;99.90;;;;;;5078681;28;20090;-77
2022/03/03 09:57:50;;;;;;;30.35;12.60;;;2.20;99.90;;;;;;5061006;28;20024;-69
2022/03/03 10:00:18;;;;;;;23.20;12.98;;;2.30;99.90;;;;;;5079221;28;20016;-69
2022/03/03 10:03:13;;;;;;;29.90;13.65;;;2.40;99.90;;;;;;5060871;28;20417;-69
2022/03/03 10:05:48;;;;;;;23.83;11.98;;;2.60;99.90;;;;;;5078913;28;20056;-69
2022/03/03 10:08:18;;;;;;;26.40;11.68;;;2.70;99.90;;;;;;5061599;28;20046;-70
2022/03/03 10:10:51;;;;;;;26.45;11.95;;;2.80;99.90;;;;;;5080441;28;20293;-69
2022/03/03 10:13:19;;;;;;;20.30;11.75;;;2.90;99.90;;;;;;5061504;28;20359;-70
2022/03/03 10:15:59;;;;;;;25.98;11.88;;;2.90;99.90;;;;;;5079269;28;20044;-69
2022/03/03 10:18:28;;;;;;;22.58;9.73;;;3.00;99.90;;;;;;5079160;28;20324;-69
2022/03/03 10:21:01;;;;;;;23.33;10.20;;;3.10;99.90;;;;;;5079103;28;20020;-68
2022/03/03 10:23:37;;;;;;;21.63;9.77;;;3.20;99.90;;;;;;5079141;28;20048;-68
2022/03/03 10:26:10;;;;;;;20.20;8.88;;;3.30;99.90;;;;;;5078259;28;20025;-68
2022/03/03 10:28:39;;;;;;;22.25;8.73;;;3.40;99.90;;;;;;5078677;28;20020;-68
2022/03/03 10:31:13;;;;;;;22.90;8.23;;;3.50;99.90;;;;;;5078032;28;20025;-69
2022/03/03 10:33:50;;;;;;;17.83;8.63;;;3.60;99.90;;;;;;5077888;28;20020;-68
2022/03/03 10:36:22;;;;;;;17.05;8.05;;;3.80;99.90;;;;;;5077912;28;20029;-69
2022/03/03 10:39:03;;;;;;;20.15;8.43;;;3.90;99.90;;;;;;5078405;28;20103;-71
2022/03/03 10:41:31;;;;;;;17.17;8.38;;;4.00;99.90;;;;;;5077952;28;20028;-69
2022/03/03 10:44:03;;;;;;;15.30;8.50;;;4.20;99.90;;;;;;5078312;28;20427;-70
2022/03/03 10:46:32;;;;;;;16.08;8.50;;;4.20;99.90;;;;;;5077816;28;20028;-70
2022/03/03 10:49:16;;;;;;;21.80;7.97;;;4.40;99.90;;;;;;5078863;28;20360;-70
2022/03/03 10:51:44;;;;;;;20.75;9.18;;;4.40;99.90;;;;;;5078726;28;20047;-70
2022/03/03 10:54:11;;;;;;;17.15;8.35;;;4.50;99.90;;;;;;5078539;28;20147;-70
2022/03/03 10:56:49;;;;;;;15.13;8.25;;;4.60;99.90;;;;;;5078536;28;20302;-70
2022/03/03 10:59:27;;;;;;;16.75;8.80;;;4.60;99.90;;;;;;5078585;28;20047;-70
2022/03/03 11:01:54;;;;;;;14.80;7.75;;;4.70;99.90;;;;;;5078427;28;20030;-70
2022/03/03 11:04:26;;;;;;;19.17;9.27;;;4.80;99.90;;;;;;5078147;28;20048;-70
2022/03/03 11:06:54;;;;;;;20.85;8.73;;;4.80;99.90;;;;;;5078084;28;20356;-70
2022/03/03 11:09:22;;;;;;;18.05;8.52;;;4.90;99.90;;;;;;5059543;28;20036;-70
2022/03/03 11:11:50;;;;;;;17.10;8.48;;;4.90;99.90;;;;;;5077320;28;20032;-70
2022/03/03 11:14:18;;;;;;;13.80;8.23;;;5.00;99.90;;;;;;5077429;28;20025;-70
2022/03/03 11:16:45;;;;;;;17.17;9.02;;;5.00;99.90;;;;;;5077208;28;20020;-70
2022/03/03 11:19:14;;;;;;;21.52;10.23;;;5.00;99.90;;;;;;5076384;28;20059;-70
2022/03/03 11:21:41;;;;;;;17.40;8.85;;;5.10;99.90;;;;;;5059837;28;20032;-70
2022/03/03 11:24:10;;;;;;;26.55;11.05;;;5.20;98.70;;;;;;5059246;28;20424;-70
2022/03/03 11:26:44;;;;;;;36.60;13.63;;;5.20;97.30;;;;;;5077647;28;20034;-70
2022/03/03 11:29:13;;;;;;;23.58;11.35;;;5.30;97.50;;;;;;5077057;28;20034;-70
2022/03/03 11:31:44;;;;;;;19.52;8.25;;;5.40;98.00;;;;;;5077824;28;20036;-70
2022/03/03 11:34:31;;;;;;;19.15;9.00;;;5.40;97.70;;;;;;5078277;28;20080;-70
2022/03/03 11:37:05;;;;;;;19.83;8.60;;;5.50;97.00;;;;;;5077706;28;20368;-70
2022/03/03 11:39:36;;;;;;;21.92;9.02;;;5.50;96.20;;;;;;5078158;28;20024;-69
2022/03/03 11:42:45;;;;;;;16.55;7.38;;;5.60;95.30;;;;;;5077928;28;20046;-69
2022/03/03 11:45:18;;;;;;;17.17;8.55;;;5.60;94.90;;;;;;5077568;28;20030;-68
2022/03/03 11:48:08;;;;;;;18.95;9.30;;;5.70;95.20;;;;;;5077539;28;20033;-69
2022/03/03 11:50:36;;;;;;;17.58;8.75;;;5.70;94.60;;;;;;5076675;28;20020;-69
2022/03/03 11:53:03;;;;;;;17.17;10.18;;;5.80;94.50;;;;;;5058993;28;20486;-69
2022/03/03 11:56:03;;;;;;;15.80;8.90;;;5.80;94.40;;;;;;5077119;28;20060;-69
2022/03/03 11:58:32;;;;;;;20.92;9.60;;;5.80;93.80;;;;;;5076796;28;20024;-69
2022/03/03 12:01:01;;;;;;;19.52;9.07;;;5.90;93.30;;;;;;5077313;28;20024;-68
2022/03/03 12:03:29;;;;;;;14.70;8.48;;;5.90;92.90;;;;;;5076210;28;20055;-70
2022/03/03 12:06:17;;;;;;;18.58;7.40;;;6.00;92.90;;;;;;5077618;28;20305;-71
2022/03/03 12:08:45;;;;;;;17.52;8.10;;;6.00;92.90;;;;;;5058622;28;20420;-70
2022/03/03 12:11:17;;;;;;;13.32;7.70;;;6.10;92.80;;;;;;5059591;28;20400;-70
2022/03/03 12:13:51;;;;;;;18.85;8.80;;;6.10;92.00;;;;;;5077201;28;20066;-69
2022/03/03 12:16:32;;;;;;;13.60;7.32;;;6.20;91.90;;;;;;5077886;28;20027;-69
2022/03/03 12:19:07;;;;;;;15.95;7.30;;;6.20;90.70;;;;;;5077195;28;20436;-69
2022/03/03 12:21:42;;;;;;;15.18;6.70;;;6.20;90.10;;;;;;5077912;28;20487;-70
2022/03/03 12:24:32;;;;;;;11.75;6.38;;;6.20;86.30;;;;;;5077353;28;20027;-70
2022/03/03 12:27:02;;;;;;;19.85;8.00;;;6.30;82.40;;;;;;5076976;28;20107;-70
2022/03/03 12:29:56;;;;;;;14.43;7.25;;;6.30;80.80;;;;;;5060366;28;20028;-70
2022/03/03 12:32:43;;;;;;;15.45;7.75;;;6.40;78.20;;;;;;5080679;28;20105;-69
2022/03/03 12:35:26;;;;;;;12.77;6.72;;;6.50;76.40;;;;;;5080263;28;20184;-69
2022/03/03 12:37:58;;;;;;;11.80;6.35;;;6.60;78.10;;;;;;5080132;28;20434;-69
2022/03/03 12:40:28;;;;;;;14.65;6.25;;;6.60;78.50;;;;;;5080139;28;20073;-68
2022/03/03 12:42:58;;;;;;;15.00;7.40;;;6.60;75.70;;;;;;5080857;28;20034;-69
2022/03/03 12:45:31;;;;;;;14.00;7.68;;;6.60;76.10;;;;;;5080647;28;20020;-69
2022/03/03 12:47:59;;;;;;;15.25;7.57;;;6.70;76.50;;;;;;5079909;28;20036;-70